Whitfield, New York
Current Conditions -  °F | °C
As of 7:16 PM on Wednesday 26 Nov 2014 (Local Time) from KMGJ Reporting Station
Light Snow Light Snow  
Wind Chill: 28°   Ceiling: 1700
Heat Index: 34°   Visibility: 3mi
Dew Point: 31°   Wind: 7mph
Humidity: 89%   Direction: 340°NNW
Pressure: 29.86"   Gusts: NA
Location:  41.8083°N, 74.2318°W
Report Text: KMGJ 270016Z AUTO 34006KT 3SM -SN BR SCT007 OVC017 01/M01 A2986 RMK AO2 P0002 T00111006 TSNO $
Loading
Personal Weather Stations






























Interactive Weather Map New forecast layout! Learn more

10-Day Weather Forecast

Advertisements
Track Severe Weather on mobile